Time;durP1;ratioP1;P1;durP2;ratioP2;P2;SDS_P1;SDS_P2;PMS_P1;PMS_P2;Temp;Humidity;BMP_temperature;BMP_pressure;BME280_temperature;BME280_humidity;BME280_pressure;Samples;Min_cycle;Max_cycle;Signal;HPM_P1;HPM_P2
2024/02/03 00:01:47;;;;;;;9.47;7.63;;;11.20;99.90;;;;;;5091773;28;20206;-73
2024/02/03 00:04:13;;;;;;;7.00;6.30;;;11.20;99.90;;;;;;5092485;28;20183;-73
2024/02/03 00:06:39;;;;;;;9.27;8.10;;;11.20;99.90;;;;;;5074507;28;20179;-73
2024/02/03 00:09:08;;;;;;;8.67;7.77;;;11.10;99.90;;;;;;5074587;28;20545;-73
2024/02/03 00:11:34;;;;;;;7.78;6.97;;;11.10;99.90;;;;;;5074470;28;20684;-73
2024/02/03 00:14:00;;;;;;;9.35;6.07;;;11.10;99.90;;;;;;5057600;28;20171;-73
2024/02/03 00:16:27;;;;;;;7.20;6.03;;;11.10;99.90;;;;;;5057435;28;20234;-73
2024/02/03 00:18:53;;;;;;;7.15;5.40;;;11.20;99.90;;;;;;5057604;28;20196;-73
2024/02/03 00:21:18;;;;;;;8.90;5.90;;;11.10;99.90;;;;;;5074281;28;20211;-73
2024/02/03 00:23:47;;;;;;;5.80;5.13;;;11.10;99.90;;;;;;5073666;28;20613;-73
2024/02/03 00:26:13;;;;;;;6.72;6.13;;;11.10;99.90;;;;;;5059800;28;20669;-72
2024/02/03 00:28:38;;;;;;;6.70;5.63;;;11.10;99.90;;;;;;5092237;28;20258;-73
2024/02/03 00:31:05;;;;;;;5.83;5.33;;;11.10;99.90;;;;;;5092298;28;20657;-73
2024/02/03 00:33:30;;;;;;;7.97;5.80;;;11.10;99.90;;;;;;5073647;28;20223;-73
2024/02/03 00:35:56;;;;;;;6.40;5.80;;;11.10;99.90;;;;;;5092193;28;20210;-73
2024/02/03 00:38:22;;;;;;;6.77;6.17;;;11.10;99.90;;;;;;5073776;28;20184;-73
2024/02/03 00:40:48;;;;;;;6.77;6.13;;;11.10;99.90;;;;;;5092096;28;20229;-73
2024/02/03 00:43:17;;;;;;;5.73;5.20;;;11.10;99.90;;;;;;5073407;28;20625;-73
2024/02/03 00:45:43;;;;;;;6.57;5.55;;;11.10;99.90;;;;;;5057297;28;20688;-73
2024/02/03 00:48:09;;;;;;;7.07;6.22;;;11.10;99.90;;;;;;5057077;28;20237;-73
2024/02/03 00:50:35;;;;;;;7.40;6.63;;;11.10;99.90;;;;;;5073454;28;20168;-73
2024/02/03 00:53:01;;;;;;;6.10;5.40;;;11.10;99.90;;;;;;5073868;28;20582;-73
2024/02/03 00:55:27;;;;;;;5.73;5.13;;;11.10;99.90;;;;;;5091380;28;20172;-73
2024/02/03 00:57:53;;;;;;;6.40;5.80;;;11.10;99.90;;;;;;5091575;28;20641;-73
2024/02/03 01:00:22;;;;;;;6.10;5.50;;;11.10;99.90;;;;;;5091627;28;20618;-73
2024/02/03 01:02:49;;;;;;;6.28;5.53;;;11.20;99.90;;;;;;5058821;28;20232;-73
2024/02/03 01:05:15;;;;;;;5.28;4.65;;;11.20;99.90;;;;;;5056282;28;20191;-73
2024/02/03 01:07:41;;;;;;;4.53;4.13;;;11.20;99.90;;;;;;5073418;28;20179;-73
2024/02/03 01:10:07;;;;;;;5.80;5.17;;;11.20;99.90;;;;;;5057010;28;20181;-73
2024/02/03 01:12:33;;;;;;;6.60;5.47;;;11.10;99.90;;;;;;5073246;28;20622;-73
2024/02/03 01:14:59;;;;;;;5.20;4.57;;;11.20;99.90;;;;;;5073112;28;20199;-73
2024/02/03 01:17:26;;;;;;;4.80;4.20;;;11.20;99.90;;;;;;5073193;28;20594;-73
2024/02/03 01:19:53;;;;;;;5.45;4.95;;;11.20;99.90;;;;;;5072606;28;20263;-73
2024/02/03 01:22:20;;;;;;;6.32;4.90;;;11.20;99.90;;;;;;5056544;28;20231;-73
2024/02/03 01:24:47;;;;;;;4.50;4.10;;;11.20;99.90;;;;;;5090867;28;20171;-73
2024/02/03 01:27:13;;;;;;;4.65;4.10;;;11.20;99.90;;;;;;5072597;28;20172;-73
2024/02/03 01:29:39;;;;;;;6.65;5.25;;;11.30;99.90;;;;;;5091331;28;20538;-73
2024/02/03 01:32:05;;;;;;;5.13;4.00;;;11.30;99.90;;;;;;5091356;28;20191;-73
2024/02/03 01:34:31;;;;;;;6.93;5.30;;;11.30;99.90;;;;;;5072027;28;20588;-73
2024/02/03 01:36:57;;;;;;;6.03;5.30;;;11.30;99.90;;;;;;5056116;28;20570;-73
2024/02/03 01:39:23;;;;;;;4.53;4.10;;;11.30;99.90;;;;;;5092082;28;20197;-73
2024/02/03 01:41:48;;;;;;;5.30;4.80;;;11.30;99.90;;;;;;5073639;28;20198;-73
2024/02/03 01:44:14;;;;;;;4.83;4.20;;;11.30;99.90;;;;;;5090517;28;20596;-73
2024/02/03 01:46:40;;;;;;;5.60;5.10;;;11.30;99.90;;;;;;5090795;28;20214;-73
2024/02/03 01:49:06;;;;;;;5.77;5.17;;;11.30;99.90;;;;;;5056110;28;20252;-73
2024/02/03 01:51:33;;;;;;;4.85;4.15;;;11.30;99.90;;;;;;5055952;28;20686;-73
2024/02/03 01:54:00;;;;;;;7.00;4.85;;;11.30;99.90;;;;;;5072394;28;20183;-73
2024/02/03 01:56:27;;;;;;;4.80;4.30;;;11.30;99.90;;;;;;5072657;28;20278;-73
2024/02/03 01:58:53;;;;;;;5.00;4.40;;;11.30;99.90;;;;;;5072421;28;20167;-73
2024/02/03 02:01:18;;;;;;;5.97;4.18;;;11.30;99.90;;;;;;5055660;28;20207;-73
2024/02/03 02:03:44;;;;;;;5.17;4.67;;;11.30;99.90;;;;;;5090217;28;20174;-73
2024/02/03 02:06:10;;;;;;;5.82;4.72;;;11.30;99.90;;;;;;5072580;28;20187;-73
2024/02/03 02:08:38;;;;;;;4.37;3.97;;;11.30;99.90;;;;;;5072467;28;20171;-73
2024/02/03 02:11:06;;;;;;;5.60;4.53;;;11.30;99.90;;;;;;5072563;28;20203;-73
2024/02/03 02:13:32;;;;;;;6.22;5.07;;;11.30;99.90;;;;;;5071429;28;20229;-73
2024/02/03 02:15:58;;;;;;;3.45;3.15;;;11.20;99.90;;;;;;5091056;28;20260;-73
2024/02/03 02:18:25;;;;;;;5.33;4.50;;;11.30;99.90;;;;;;5074192;28;20225;-73
2024/02/03 02:20:51;;;;;;;5.22;4.38;;;11.30;99.90;;;;;;5090194;28;20578;-73
2024/02/03 02:23:17;;;;;;;4.55;4.13;;;11.30;99.90;;;;;;5090299;28;20187;-73
2024/02/03 02:25:43;;;;;;;3.93;3.50;;;11.30;99.90;;;;;;5090549;28;20258;-73
2024/02/03 02:28:09;;;;;;;4.18;3.78;;;11.30;99.90;;;;;;5072508;28;20233;-73
2024/02/03 02:30:34;;;;;;;4.40;3.77;;;11.30;99.90;;;;;;5072207;28;20634;-73
2024/02/03 02:33:01;;;;;;;4.23;3.83;;;11.30;99.90;;;;;;5072383;28;20179;-73
2024/02/03 02:35:27;;;;;;;3.92;3.53;;;11.30;99.90;;;;;;5071959;28;20596;-73
2024/02/03 02:37:53;;;;;;;7.68;4.28;;;11.30;99.90;;;;;;5072181;28;20200;-73
2024/02/03 02:40:19;;;;;;;4.68;4.10;;;11.30;99.90;;;;;;5072231;28;20168;-73
2024/02/03 02:42:45;;;;;;;4.70;4.20;;;11.30;99.90;;;;;;5072230;28;20248;-73
2024/02/03 02:45:11;;;;;;;4.67;4.07;;;11.30;99.90;;;;;;5089940;28;20637;-74
2024/02/03 02:47:37;;;;;;;3.80;3.20;;;11.30;99.90;;;;;;5072015;28;20179;-74
2024/02/03 02:50:03;;;;;;;4.80;3.83;;;11.30;99.90;;;;;;5090400;28;20250;-73
2024/02/03 02:52:29;;;;;;;4.35;3.58;;;11.30;99.90;;;;;;5072456;28;20263;-73
2024/02/03 02:54:56;;;;;;;4.00;3.60;;;11.30;99.90;;;;;;5092127;28;20629;-73
2024/02/03 02:57:22;;;;;;;4.20;3.65;;;11.30;99.90;;;;;;5072075;28;20253;-73
2024/02/03 02:59:48;;;;;;;3.50;3.20;;;11.30;99.90;;;;;;5090237;28;20638;-73
2024/02/03 03:02:14;;;;;;;5.30;3.60;;;11.30;99.90;;;;;;5071784;28;20236;-73
2024/02/03 03:04:39;;;;;;;3.77;3.30;;;11.20;99.90;;;;;;5071677;28;21149;-73
2024/02/03 03:07:05;;;;;;;4.50;3.67;;;11.30;99.90;;;;;;5071939;28;20623;-73
2024/02/03 03:09:31;;;;;;;4.13;3.73;;;11.30;99.90;;;;;;5090091;28;20201;-73
2024/02/03 03:11:57;;;;;;;4.60;3.57;;;11.30;99.90;;;;;;5090191;28;20199;-73
2024/02/03 03:14:22;;;;;;;4.40;3.90;;;11.30;99.90;;;;;;5054810;28;20549;-73
2024/02/03 03:16:49;;;;;;;4.17;3.10;;;11.30;99.90;;;;;;5071542;28;20694;-73
2024/02/03 03:19:15;;;;;;;4.65;4.10;;;11.30;99.90;;;;;;5071835;28;20179;-73
2024/02/03 03:21:41;;;;;;;3.97;3.40;;;11.30;99.90;;;;;;5071795;28;20198;-73
2024/02/03 03:24:07;;;;;;;3.63;3.30;;;11.30;99.90;;;;;;5072063;28;20226;-73
2024/02/03 03:26:39;;;;;;;7.03;5.03;;;11.30;99.90;;;;;;5075209;28;20175;-73
2024/02/03 03:29:05;;;;;;;3.75;3.30;;;11.30;99.90;;;;;;5093666;28;20582;-73
2024/02/03 03:31:31;;;;;;;4.07;3.37;;;11.30;99.90;;;;;;5096975;28;20209;-73
2024/02/03 03:33:56;;;;;;;4.13;3.60;;;11.30;99.90;;;;;;5093153;28;20171;-73
2024/02/03 03:36:22;;;;;;;5.87;3.80;;;11.30;99.90;;;;;;5075307;28;20210;-73
2024/02/03 03:38:48;;;;;;;4.80;3.77;;;11.30;99.90;;;;;;5058611;28;20271;-73
2024/02/03 03:41:13;;;;;;;3.73;3.30;;;11.30;99.90;;;;;;5058453;28;20195;-73
2024/02/03 03:43:39;;;;;;;3.87;3.47;;;11.30;99.90;;;;;;5092693;28;20582;-73
2024/02/03 03:46:08;;;;;;;3.70;3.40;;;11.40;99.90;;;;;;5093178;28;20171;-73
2024/02/03 03:48:33;;;;;;;4.38;3.40;;;11.40;99.90;;;;;;5058385;28;20229;-73
2024/02/03 03:50:59;;;;;;;4.37;3.83;;;11.40;99.90;;;;;;5067540;28;20191;-75
2024/02/03 03:53:25;;;;;;;3.70;3.33;;;11.40;99.90;;;;;;5074684;28;20665;-73
2024/02/03 03:55:50;;;;;;;5.00;4.30;;;11.40;99.90;;;;;;5075091;28;20222;-74
2024/02/03 03:58:16;;;;;;;3.50;3.20;;;11.40;99.90;;;;;;5093390;28;20206;-73
2024/02/03 04:00:42;;;;;;;4.37;3.67;;;11.40;99.90;;;;;;5074593;28;20179;-73
2024/02/03 04:03:15;;;;;;;5.27;4.30;;;11.40;99.90;;;;;;5092901;28;20306;-73
2024/02/03 04:05:40;;;;;;;3.90;3.10;;;11.50;99.90;;;;;;5074579;28;20663;-74
2024/02/03 04:08:06;;;;;;;4.33;3.70;;;11.50;99.90;;;;;;5095448;28;20176;-73
2024/02/03 04:10:32;;;;;;;3.07;2.53;;;11.50;99.90;;;;;;5093016;28;20180;-73
2024/02/03 04:12:58;;;;;;;5.33;4.00;;;11.50;99.90;;;;;;5074191;28;20625;-73
2024/02/03 04:15:24;;;;;;;4.00;3.60;;;11.50;99.90;;;;;;5090760;28;20743;-73
2024/02/03 04:17:50;;;;;;;3.57;2.83;;;11.50;99.90;;;;;;5074244;28;20691;-73
2024/02/03 04:20:16;;;;;;;3.65;2.65;;;11.50;99.90;;;;;;5092677;28;20175;-73
2024/02/03 04:22:41;;;;;;;3.37;2.80;;;11.60;99.90;;;;;;5074065;28;20200;-73
2024/02/03 04:25:07;;;;;;;3.40;2.57;;;11.60;99.90;;;;;;5073800;28;20612;-74
2024/02/03 04:27:33;;;;;;;3.95;3.55;;;11.60;99.90;;;;;;5074408;28;20179;-73
2024/02/03 04:29:59;;;;;;;3.73;3.03;;;11.60;99.90;;;;;;5074045;28;20194;-74
2024/02/03 04:32:25;;;;;;;3.17;2.87;;;11.60;99.90;;;;;;5076090;28;21254;-73
2024/02/03 04:34:51;;;;;;;3.30;2.73;;;11.60;99.90;;;;;;5110761;28;20654;-73
2024/02/03 04:37:16;;;;;;;4.50;3.30;;;11.60;99.90;;;;;;5108180;28;20212;-73
2024/02/03 04:39:42;;;;;;;3.23;2.93;;;11.60;99.90;;;;;;5075457;28;20179;-73
2024/02/03 04:42:09;;;;;;;4.03;2.87;;;11.60;99.90;;;;;;5074279;28;20196;-73
2024/02/03 04:44:34;;;;;;;4.47;3.30;;;11.60;99.90;;;;;;5074108;28;20274;-73
2024/02/03 04:47:00;;;;;;;3.93;3.63;;;11.60;99.90;;;;;;5076440;28;20631;-74
2024/02/03 04:49:26;;;;;;;5.80;3.78;;;11.70;99.90;;;;;;5091882;28;20199;-73
2024/02/03 04:51:52;;;;;;;5.30;3.27;;;11.70;99.90;;;;;;5073532;28;20561;-73
2024/02/03 04:54:18;;;;;;;4.63;3.58;;;11.70;99.90;;;;;;5091777;28;20933;-73
2024/02/03 04:56:44;;;;;;;4.00;3.37;;;11.70;99.90;;;;;;5091677;28;20280;-74
2024/02/03 04:59:10;;;;;;;5.20;3.50;;;11.70;99.90;;;;;;5114897;27;20727;-74
2024/02/03 05:01:36;;;;;;;4.90;3.23;;;11.70;99.90;;;;;;5107171;28;20207;-73
2024/02/03 05:04:02;;;;;;;3.08;2.75;;;11.70;99.90;;;;;;5073124;28;20282;-73
2024/02/03 05:06:28;;;;;;;4.70;3.97;;;11.70;99.90;;;;;;5073380;28;20263;-73
2024/02/03 05:08:58;;;;;;;3.43;2.80;;;11.70;99.90;;;;;;5091585;28;20233;-73
2024/02/03 05:11:25;;;;;;;4.45;3.40;;;11.80;99.90;;;;;;5056591;28;20637;-72
2024/02/03 05:13:51;;;;;;;3.00;2.65;;;11.80;99.90;;;;;;5072592;28;20179;-73
2024/02/03 05:16:17;;;;;;;4.10;3.20;;;11.80;99.90;;;;;;5076713;28;20200;-78
2024/02/03 05:18:42;;;;;;;4.27;3.17;;;11.80;99.90;;;;;;5083210;28;20183;-78
2024/02/03 05:21:08;;;;;;;3.87;3.47;;;11.80;99.90;;;;;;5083390;28;20225;-78
2024/02/03 05:23:34;;;;;;;3.80;2.93;;;11.90;99.90;;;;;;5103441;28;20166;-77
2024/02/03 05:25:59;;;;;;;4.23;2.90;;;11.90;99.90;;;;;;5095039;28;20214;-78
2024/02/03 05:28:25;;;;;;;5.27;2.80;;;11.90;99.90;;;;;;5106527;28;20180;-78
2024/02/03 05:30:50;;;;;;;3.93;2.67;;;11.90;99.90;;;;;;5103649;28;20582;-78
2024/02/03 05:33:16;;;;;;;2.53;2.20;;;11.90;99.90;;;;;;5082890;28;20176;-78
2024/02/03 05:35:42;;;;;;;3.47;2.80;;;11.90;99.90;;;;;;5103270;28;20239;-78
2024/02/03 05:38:07;;;;;;;3.10;2.47;;;11.90;99.90;;;;;;5053372;28;20204;-78
2024/02/03 05:40:33;;;;;;;2.00;1.73;;;11.90;99.90;;;;;;5088489;28;20179;-78
2024/02/03 05:43:01;;;;;;;2.90;2.57;;;12.00;99.90;;;;;;5107686;28;20203;-78
2024/02/03 05:45:26;;;;;;;3.10;1.90;;;11.90;99.90;;;;;;5090638;28;20202;-78
2024/02/03 05:47:52;;;;;;;2.70;2.10;;;11.90;99.90;;;;;;5095059;28;20172;-78
2024/02/03 05:50:18;;;;;;;2.10;1.90;;;11.90;99.90;;;;;;5115773;28;20180;-79
2024/02/03 05:52:43;;;;;;;2.23;1.83;;;12.00;99.90;;;;;;5110684;28;20225;-78
2024/02/03 05:55:09;;;;;;;4.10;2.30;;;12.00;99.90;;;;;;5091038;28;20207;-78
2024/02/03 05:57:35;;;;;;;3.50;2.53;;;12.00;99.90;;;;;;5092177;28;20203;-78
2024/02/03 06:00:00;;;;;;;3.23;1.97;;;12.00;99.90;;;;;;5088656;28;20183;-78
2024/02/03 06:02:30;;;;;;;2.90;2.60;;;12.00;99.90;;;;;;5087252;28;20204;-78
2024/02/03 06:04:55;;;;;;;2.42;2.22;;;12.00;99.90;;;;;;5107349;28;20590;-78
2024/02/03 06:07:22;;;;;;;2.30;1.90;;;12.00;99.90;;;;;;5108982;28;20179;-78
2024/02/03 06:09:48;;;;;;;3.58;2.38;;;12.10;99.90;;;;;;5073026;28;20808;-79
2024/02/03 06:12:14;;;;;;;3.80;2.83;;;12.10;99.90;;;;;;5110084;28;20267;-79
2024/02/03 06:14:41;;;;;;;3.20;2.70;;;12.10;99.90;;;;;;5092726;28;20349;-79
2024/02/03 06:17:07;;;;;;;4.70;2.58;;;12.10;99.90;;;;;;5090659;28;20203;-79
2024/02/03 06:19:32;;;;;;;2.50;2.28;;;12.10;99.90;;;;;;5091180;28;20184;-79
2024/02/03 06:21:58;;;;;;;2.50;1.97;;;12.10;99.90;;;;;;5108962;28;20282;-79
2024/02/03 06:24:24;;;;;;;3.17;2.10;;;12.10;99.90;;;;;;5100395;28;20807;-78
2024/02/03 06:26:49;;;;;;;3.23;2.50;;;12.20;99.90;;;;;;5084173;28;20233;-79
2024/02/03 06:29:15;;;;;;;2.97;2.20;;;12.10;99.90;;;;;;5075626;28;20168;-80
2024/02/03 06:31:41;;;;;;;2.80;2.20;;;12.20;99.90;;;;;;5111144;28;20221;-80
2024/02/03 06:34:06;;;;;;;4.53;2.50;;;12.20;99.90;;;;;;5091244;28;20186;-80
2024/02/03 06:36:32;;;;;;;3.53;2.20;;;12.20;99.90;;;;;;5086464;28;20203;-80
2024/02/03 06:38:58;;;;;;;2.47;2.23;;;12.20;99.90;;;;;;5113367;28;20171;-80
2024/02/03 06:41:26;;;;;;;2.83;2.37;;;12.20;99.90;;;;;;5115708;28;20191;-79
2024/02/03 06:43:52;;;;;;;3.55;2.90;;;12.20;99.90;;;;;;5110264;28;20536;-80
2024/02/03 06:46:18;;;;;;;3.13;2.50;;;12.20;99.90;;;;;;5129122;28;20188;-79
2024/02/03 06:48:44;;;;;;;2.67;2.40;;;12.20;99.90;;;;;;5113507;28;20175;-79
2024/02/03 06:51:10;;;;;;;3.25;2.50;;;12.20;99.90;;;;;;5096458;28;20256;-79
2024/02/03 06:53:35;;;;;;;3.50;2.57;;;12.20;99.90;;;;;;5114601;28;20156;-79
2024/02/03 06:56:01;;;;;;;3.67;2.83;;;12.20;99.90;;;;;;5080395;28;20167;-79
2024/02/03 06:58:27;;;;;;;3.67;3.00;;;12.20;99.90;;;;;;5097578;28;20416;-79
2024/02/03 07:00:52;;;;;;;3.77;3.20;;;12.30;99.90;;;;;;5117413;28;20184;-78
2024/02/03 07:03:18;;;;;;;6.50;3.27;;;12.30;99.90;;;;;;5084255;28;20152;-79
2024/02/03 07:05:44;;;;;;;3.23;2.90;;;12.30;99.90;;;;;;5099797;28;20202;-79
2024/02/03 07:08:09;;;;;;;4.03;3.60;;;12.30;99.90;;;;;;5102915;28;20608;-80
2024/02/03 07:10:35;;;;;;;4.37;3.60;;;12.30;99.90;;;;;;5100147;28;20190;-80
2024/02/03 07:13:01;;;;;;;3.47;2.93;;;12.30;99.90;;;;;;5103089;28;20680;-80
2024/02/03 07:15:27;;;;;;;3.80;3.27;;;12.30;99.90;;;;;;5122276;28;20175;-80
2024/02/03 07:17:56;;;;;;;3.80;3.35;;;12.30;99.90;;;;;;5094955;28;20191;-80
2024/02/03 07:20:22;;;;;;;5.07;3.30;;;12.30;99.90;;;;;;5111141;28;20613;-80
2024/02/03 07:22:48;;;;;;;3.17;2.87;;;12.30;99.90;;;;;;5091982;28;20191;-79
2024/02/03 07:25:33;;;;;;;3.83;3.47;;;12.30;99.90;;;;;;5110043;28;20594;-80
2024/02/03 07:28:04;;;;;;;4.15;3.75;;;12.30;99.90;;;;;;5118069;28;20172;-79
2024/02/03 07:30:30;;;;;;;3.38;3.08;;;12.30;99.90;;;;;;5091371;28;20171;-79
2024/02/03 07:33:16;;;;;;;3.40;2.70;;;12.30;99.90;;;;;;5111437;28;20194;-80
2024/02/03 07:35:41;;;;;;;4.82;2.83;;;12.30;99.90;;;;;;5092798;28;20265;-80
2024/02/03 07:38:08;;;;;;;3.37;2.93;;;12.30;99.90;;;;;;5110181;28;20648;-80
2024/02/03 07:40:34;;;;;;;2.90;2.58;;;12.30;99.90;;;;;;5082902;28;20620;-79
2024/02/03 07:42:59;;;;;;;3.90;2.90;;;12.30;99.90;;;;;;5090870;28;20191;-80
2024/02/03 07:45:28;;;;;;;3.40;3.03;;;12.40;99.90;;;;;;5116850;28;20177;-80
2024/02/03 07:47:54;;;;;;;3.60;2.97;;;12.40;99.90;;;;;;5119337;28;20175;-78
2024/02/03 07:50:20;;;;;;;4.93;3.17;;;12.40;99.90;;;;;;5116966;28;20182;-78
2024/02/03 07:52:46;;;;;;;4.47;3.70;;;12.40;99.90;;;;;;5118241;28;20207;-79
2024/02/03 07:55:12;;;;;;;3.35;2.58;;;12.40;99.90;;;;;;5115607;28;20179;-78
2024/02/03 07:57:38;;;;;;;3.20;2.90;;;12.50;99.90;;;;;;5093897;28;20231;-78
2024/02/03 08:00:04;;;;;;;2.93;2.30;;;12.50;99.90;;;;;;5117977;28;20606;-78
2024/02/03 08:02:32;;;;;;;2.83;2.53;;;12.50;99.90;;;;;;5116127;28;20199;-78
2024/02/03 08:04:57;;;;;;;3.00;2.03;;;12.50;99.90;;;;;;5116337;28;20562;-77
2024/02/03 08:07:23;;;;;;;2.83;1.83;;;12.50;99.90;;;;;;5115331;28;20589;-78
2024/02/03 08:09:49;;;;;;;2.63;2.00;;;12.60;99.90;;;;;;5110192;28;20171;-77
2024/02/03 08:12:14;;;;;;;4.70;3.33;;;12.60;99.90;;;;;;5110472;28;20190;-78
2024/02/03 08:14:40;;;;;;;2.50;2.30;;;12.60;99.90;;;;;;5099681;28;20182;-77
2024/02/03 08:17:06;;;;;;;2.13;1.93;;;12.60;99.90;;;;;;5116359;28;20203;-79
2024/02/03 08:19:31;;;;;;;3.10;1.93;;;12.70;99.90;;;;;;5113188;28;20164;-78
2024/02/03 08:21:57;;;;;;;3.90;2.03;;;12.80;99.90;;;;;;5097640;28;20226;-78
2024/02/03 08:24:23;;;;;;;2.40;1.70;;;12.80;99.90;;;;;;5093256;28;20152;-78
2024/02/03 08:26:48;;;;;;;2.20;1.43;;;12.80;99.90;;;;;;5094482;28;20164;-77
2024/02/03 08:29:14;;;;;;;2.63;1.60;;;12.90;99.90;;;;;;5117717;28;20195;-77
2024/02/03 08:31:40;;;;;;;4.27;2.20;;;12.90;99.90;;;;;;5083753;28;20206;-78
2024/02/03 08:34:06;;;;;;;3.07;2.47;;;13.00;99.90;;;;;;5117810;28;20171;-78
2024/02/03 08:36:32;;;;;;;3.80;2.50;;;13.00;99.90;;;;;;5100185;28;20690;-78
2024/02/03 08:38:57;;;;;;;3.20;1.90;;;13.00;99.90;;;;;;5099197;28;20593;-79
2024/02/03 08:41:23;;;;;;;2.47;2.27;;;13.10;99.90;;;;;;5098639;28;20202;-78
2024/02/03 08:43:49;;;;;;;4.53;1.90;;;13.10;99.90;;;;;;5114371;28;20179;-77
2024/02/03 08:46:14;;;;;;;4.97;2.23;;;13.10;99.90;;;;;;5114909;28;20167;-79
2024/02/03 08:48:40;;;;;;;2.50;1.90;;;13.20;99.90;;;;;;5114650;28;20156;-78
2024/02/03 08:51:07;;;;;;;4.83;1.90;;;13.20;99.90;;;;;;5084886;28;20198;-79
2024/02/03 08:53:33;;;;;;;2.53;1.60;;;13.20;99.90;;;;;;5109494;28;20188;-79
2024/02/03 08:55:58;;;;;;;5.53;1.73;;;13.30;99.90;;;;;;5075903;28;20589;-79
2024/02/03 08:58:24;;;;;;;2.50;1.43;;;13.30;99.90;;;;;;5078711;28;20259;-79
2024/02/03 09:00:50;;;;;;;2.53;1.77;;;13.30;99.90;;;;;;5076545;28;20634;-79
2024/02/03 09:03:16;;;;;;;3.90;2.47;;;13.40;99.90;;;;;;5096329;28;20746;-78
2024/02/03 09:05:41;;;;;;;3.07;2.53;;;13.40;99.90;;;;;;5086135;28;20164;-79
2024/02/03 09:08:08;;;;;;;3.10;1.97;;;13.40;99.90;;;;;;5063678;28;20183;-79
2024/02/03 09:10:42;;;;;;;4.57;1.83;;;13.40;99.90;;;;;;5081894;28;20246;-79
2024/02/03 09:13:08;;;;;;;2.83;2.00;;;13.50;99.90;;;;;;5070756;28;20581;-79
2024/02/03 09:15:33;;;;;;;2.93;1.93;;;13.50;99.90;;;;;;5099712;28;20635;-80
2024/02/03 09:17:59;;;;;;;2.83;1.80;;;13.60;99.90;;;;;;5099082;28;20207;-79
2024/02/03 09:20:25;;;;;;;4.10;2.40;;;13.60;99.90;;;;;;5099439;28;20180;-79
2024/02/03 09:22:51;;;;;;;3.17;1.90;;;13.60;99.90;;;;;;5050358;28;20195;-79
2024/02/03 09:25:16;;;;;;;2.53;1.73;;;13.60;99.90;;;;;;5080462;28;20688;-79
2024/02/03 09:27:42;;;;;;;3.27;2.00;;;13.70;99.90;;;;;;5086943;28;20168;-79
2024/02/03 09:30:08;;;;;;;4.20;1.93;;;13.70;99.90;;;;;;5068722;28;20274;-80
2024/02/03 09:32:34;;;;;;;3.50;2.23;;;13.80;99.90;;;;;;5082310;28;20191;-79
2024/02/03 09:35:00;;;;;;;5.73;2.33;;;13.90;99.90;;;;;;5089466;28;20590;-79
2024/02/03 09:37:25;;;;;;;3.50;2.83;;;13.90;99.90;;;;;;5097615;28;20560;-80
2024/02/03 09:39:51;;;;;;;2.57;1.93;;;14.00;99.90;;;;;;5096035;28;20198;-80
2024/02/03 09:42:17;;;;;;;5.27;2.10;;;14.10;99.90;;;;;;5087605;28;20203;-80
2024/02/03 09:44:44;;;;;;;3.13;2.30;;;14.10;99.90;;;;;;5094060;28;20174;-80
2024/02/03 09:47:14;;;;;;;2.60;2.17;;;14.20;99.90;;;;;;5094454;28;20581;-80
2024/02/03 09:49:40;;;;;;;2.90;1.90;;;14.20;99.90;;;;;;5078217;28;20594;-79
2024/02/03 09:52:13;;;;;;;2.73;2.10;;;14.40;99.90;;;;;;5111390;28;20606;-79
2024/02/03 09:54:45;;;;;;;5.00;2.00;;;14.40;99.90;;;;;;5107944;28;20672;-79
2024/02/03 09:57:12;;;;;;;3.80;2.27;;;14.40;99.90;;;;;;5094021;28;20685;-80
2024/02/03 09:59:38;;;;;;;2.70;2.10;;;14.50;99.90;;;;;;5086781;28;20586;-79
2024/02/03 10:02:04;;;;;;;2.43;2.23;;;14.50;99.90;;;;;;5092731;28;20632;-79
2024/02/03 10:04:37;;;;;;;3.63;2.20;;;14.50;99.90;;;;;;5079930;28;20972;-75
2024/02/03 10:07:03;;;;;;;2.40;1.77;;;14.40;99.90;;;;;;5072482;28;20228;-75
2024/02/03 10:09:29;;;;;;;3.40;1.90;;;14.30;99.90;;;;;;5072628;28;20581;-75
2024/02/03 10:11:54;;;;;;;3.13;2.30;;;14.20;99.90;;;;;;5072875;28;20199;-74
2024/02/03 10:14:20;;;;;;;2.73;1.90;;;14.20;99.90;;;;;;5090021;28;20203;-76
2024/02/03 10:16:50;;;;;;;3.30;2.17;;;14.10;99.90;;;;;;5090547;28;20306;-75
2024/02/03 10:19:20;;;;;;;2.53;1.90;;;14.00;99.90;;;;;;5074649;28;20211;-76
2024/02/03 10:21:46;;;;;;;5.83;3.37;;;13.90;99.90;;;;;;5091033;28;20610;-76
2024/02/03 10:24:19;;;;;;;6.23;2.70;;;13.80;99.90;;;;;;5090320;28;20605;-75
2024/02/03 10:26:44;;;;;;;3.53;2.37;;;13.70;99.90;;;;;;5072304;28;20620;-75
2024/02/03 10:29:16;;;;;;;3.03;2.73;;;13.60;99.90;;;;;;5090353;28;20610;-74
2024/02/03 10:31:48;;;;;;;2.90;2.60;;;13.60;99.90;;;;;;5090249;28;20213;-74
2024/02/03 10:34:14;;;;;;;3.43;2.40;;;13.60;99.90;;;;;;5074695;28;20676;-74
2024/02/03 10:36:41;;;;;;;2.60;2.03;;;13.60;99.90;;;;;;5076092;28;20727;-75
2024/02/03 10:39:07;;;;;;;3.23;2.03;;;13.50;99.90;;;;;;5076475;28;20646;-75
2024/02/03 10:41:38;;;;;;;2.90;2.60;;;13.60;99.90;;;;;;5076325;28;20621;-75
2024/02/03 10:44:07;;;;;;;2.13;1.93;;;13.60;99.90;;;;;;5075687;28;20180;-76
2024/02/03 10:46:42;;;;;;;2.50;1.93;;;13.70;99.90;;;;;;5076064;28;20925;-74
2024/02/03 10:49:12;;;;;;;2.60;2.40;;;13.80;99.90;;;;;;5067273;28;20615;-74
2024/02/03 10:51:39;;;;;;;3.20;2.43;;;13.90;99.90;;;;;;5067360;28;20659;-75
2024/02/03 10:54:11;;;;;;;3.10;2.30;;;13.90;99.90;;;;;;5074121;28;20682;-75
2024/02/03 10:56:38;;;;;;;3.77;2.13;;;14.00;99.90;;;;;;5060753;28;20632;-74
2024/02/03 10:59:05;;;;;;;5.23;1.90;;;14.00;99.90;;;;;;5093980;28;20667;-74
2024/02/03 11:01:36;;;;;;;5.47;2.57;;;14.10;99.90;;;;;;5093828;28;20620;-74
2024/02/03 11:04:03;;;;;;;5.57;2.57;;;14.20;99.90;;;;;;5093586;28;20582;-74
2024/02/03 11:06:31;;;;;;;2.63;1.77;;;14.20;99.90;;;;;;5075906;28;20608;-74
2024/02/03 11:09:11;;;;;;;2.90;2.60;;;14.20;99.90;;;;;;5094031;28;20672;-74
2024/02/03 11:11:43;;;;;;;2.47;2.00;;;14.10;99.90;;;;;;5087082;28;20613;-74
2024/02/03 11:14:24;;;;;;;3.17;2.63;;;14.10;99.90;;;;;;5058286;28;20585;-74
2024/02/03 11:17:04;;;;;;;6.20;3.10;;;14.10;99.90;;;;;;5093644;28;20661;-74
2024/02/03 11:19:32;;;;;;;3.60;2.93;;;14.20;99.90;;;;;;5067825;28;20589;-74
2024/02/03 11:21:59;;;;;;;3.73;2.13;;;14.10;99.90;;;;;;5075561;28;20699;-74
2024/02/03 11:24:25;;;;;;;3.20;2.80;;;14.10;99.90;;;;;;5093139;28;20584;-74
2024/02/03 11:26:59;;;;;;;5.00;3.40;;;14.10;99.90;;;;;;5067700;22;20690;-75
2024/02/03 11:29:25;;;;;;;4.00;3.60;;;14.10;99.90;;;;;;5038105;28;20629;-75
2024/02/03 11:32:04;;;;;;;3.87;3.47;;;14.10;99.90;;;;;;5018303;28;20612;-75
2024/02/03 11:34:35;;;;;;;3.50;3.20;;;14.10;99.90;;;;;;5016611;28;20588;-75
2024/02/03 11:37:02;;;;;;;4.97;4.17;;;14.20;99.90;;;;;;5031374;28;20719;-75
2024/02/03 11:39:34;;;;;;;5.03;3.37;;;14.30;99.90;;;;;;5027468;28;20666;-76
2024/02/03 11:42:02;;;;;;;4.63;3.50;;;14.40;99.90;;;;;;5027297;28;20676;-75
2024/02/03 11:44:50;;;;;;;4.40;2.63;;;14.50;99.90;;;;;;5030502;28;20573;-76
2024/02/03 11:47:19;;;;;;;4.33;3.20;;;14.70;99.90;;;;;;5014199;28;20628;-75
2024/02/03 11:49:49;;;;;;;3.93;3.00;;;14.70;99.90;;;;;;5032042;28;20572;-75
2024/02/03 11:52:15;;;;;;;2.67;2.27;;;14.90;99.90;;;;;;5032798;28;20674;-76
2024/02/03 11:54:40;;;;;;;2.47;1.60;;;14.90;99.90;;;;;;5027849;28;20680;-76
2024/02/03 11:57:06;;;;;;;2.60;1.77;;;15.00;99.90;;;;;;5040206;28;20647;-76
2024/02/03 11:59:32;;;;;;;2.60;1.80;;;15.00;99.90;;;;;;5036019;28;20180;-76
2024/02/03 12:01:59;;;;;;;2.30;1.30;;;15.10;99.90;;;;;;5052519;28;20587;-76
2024/02/03 12:04:26;;;;;;;2.73;1.63;;;15.20;99.90;;;;;;5034191;28;20173;-76
2024/02/03 12:06:54;;;;;;;2.47;1.83;;;15.30;99.90;;;;;;5052438;28;21171;-76
2024/02/03 12:09:20;;;;;;;2.43;1.70;;;15.30;99.90;;;;;;5051135;28;20599;-76
2024/02/03 12:11:50;;;;;;;6.43;2.83;;;15.20;99.90;;;;;;5001796;28;20599;-76
2024/02/03 12:14:17;;;;;;;7.50;2.00;;;15.20;99.90;;;;;;5051636;28;20587;-76
2024/02/03 12:16:47;;;;;;;2.50;1.47;;;15.20;99.90;;;;;;5034223;28;21062;-76
2024/02/03 12:19:13;;;;;;;3.40;1.80;;;15.20;99.90;;;;;;5015698;28;20599;-76
2024/02/03 12:21:39;;;;;;;2.77;1.60;;;15.10;99.90;;;;;;5033889;28;20594;-75
2024/02/03 12:24:06;;;;;;;2.50;1.67;;;15.10;99.90;;;;;;5033463;28;20595;-76
2024/02/03 12:26:32;;;;;;;2.60;1.57;;;15.00;99.90;;;;;;5051191;28;20639;-75
2024/02/03 12:28:59;;;;;;;2.00;1.47;;;15.00;99.90;;;;;;5052166;28;20591;-75
2024/02/03 12:31:25;;;;;;;2.67;1.70;;;14.90;99.90;;;;;;5033891;28;22539;-75
2024/02/03 12:33:51;;;;;;;4.00;2.37;;;14.90;99.90;;;;;;5051744;28;20582;-75
2024/02/03 12:36:17;;;;;;;3.63;2.20;;;14.80;99.90;;;;;;5051872;28;20201;-75
2024/02/03 12:38:43;;;;;;;3.97;2.50;;;14.80;99.90;;;;;;5051998;28;20598;-75
2024/02/03 12:41:09;;;;;;;3.40;1.93;;;14.80;99.90;;;;;;5050330;28;21140;-75
2024/02/03 12:43:36;;;;;;;2.90;1.97;;;14.70;99.90;;;;;;5034175;28;20583;-76
2024/02/03 12:46:02;;;;;;;2.27;1.77;;;14.80;99.90;;;;;;5057311;28;20288;-77